createdAt,value
2022-08-25T00:01:57.992Z,5.18
2022-08-25T00:04:25.940Z,4.50
2022-08-25T00:06:58.256Z,4.80
2022-08-25T00:09:28.423Z,4.78
2022-08-25T00:11:55.253Z,4.50
2022-08-25T00:14:31.445Z,4.70
2022-08-25T00:16:58.265Z,4.32
2022-08-25T00:19:30.059Z,4.70
2022-08-25T00:21:56.862Z,4.40
2022-08-25T00:24:24.631Z,4.53
2022-08-25T00:26:55.049Z,4.82
2022-08-25T00:29:24.244Z,4.47
2022-08-25T00:31:52.414Z,4.70
2022-08-25T00:34:23.343Z,4.43
2022-08-25T00:36:53.539Z,4.28
2022-08-25T00:39:23.129Z,4.70
2022-08-25T00:41:53.156Z,4.70
2022-08-25T00:44:20.567Z,4.32
2022-08-25T00:46:56.381Z,4.68
2022-08-25T00:49:28.948Z,4.72
2022-08-25T00:52:07.409Z,4.07
2022-08-25T00:54:56.651Z,4.60
2022-08-25T00:57:34.425Z,4.28
2022-08-25T01:00:08.548Z,4.15
2022-08-25T01:02:35.509Z,4.10
2022-08-25T01:05:03.120Z,4.13
2022-08-25T01:07:29.966Z,3.78
2022-08-25T01:09:56.781Z,4.00
2022-08-25T01:12:23.524Z,4.28
2022-08-25T01:14:51.572Z,4.03
2022-08-25T01:17:18.479Z,4.10
2022-08-25T01:19:45.249Z,4.68
2022-08-25T01:22:12.355Z,4.45
2022-08-25T01:25:05.149Z,4.22
2022-08-25T01:27:31.964Z,3.83
2022-08-25T01:29:59.041Z,4.15
2022-08-25T01:32:26.187Z,4.40
2022-08-25T01:34:53.026Z,4.72
2022-08-25T01:37:20.660Z,4.38
2022-08-25T01:39:48.031Z,4.25
2022-08-25T01:42:33.555Z,4.70
2022-08-25T01:45:00.342Z,4.60
2022-08-25T01:47:27.128Z,4.38
2022-08-25T01:49:53.888Z,4.97
2022-08-25T01:52:21.357Z,5.07
2022-08-25T01:54:48.683Z,4.97
2022-08-25T01:57:15.658Z,5.05
2022-08-25T01:59:42.863Z,4.40
2022-08-25T02:02:09.783Z,5.07
2022-08-25T02:04:38.109Z,4.85
2022-08-25T02:07:07.558Z,4.30
2022-08-25T02:09:36.016Z,4.68
2022-08-25T02:12:03.939Z,4.68
2022-08-25T02:14:30.957Z,5.18
2022-08-25T02:16:57.822Z,4.47
2022-08-25T02:19:26.466Z,4.53
2022-08-25T02:21:53.872Z,4.80
2022-08-25T02:24:21.309Z,4.88
2022-08-25T02:26:48.528Z,4.70
2022-08-25T02:29:16.878Z,4.85
2022-08-25T02:31:44.658Z,5.20
2022-08-25T02:34:12.132Z,5.15
2022-08-25T02:36:39.100Z,5.00
2022-08-25T02:39:08.906Z,4.80
2022-08-25T02:41:36.692Z,4.57
2022-08-25T02:44:04.988Z,4.50
2022-08-25T02:46:31.917Z,4.93
2022-08-25T02:48:59.132Z,4.65
2022-08-25T02:51:30.013Z,4.82
2022-08-25T02:53:59.284Z,4.38
2022-08-25T02:56:27.100Z,4.38
2022-08-25T02:58:54.524Z,5.07
2022-08-25T03:01:21.987Z,5.18
2022-08-25T03:03:52.415Z,4.93
2022-08-25T03:06:23.290Z,5.63
2022-08-25T03:08:50.717Z,4.50
2022-08-25T03:11:18.065Z,4.88
2022-08-25T03:13:45.250Z,5.10
2022-08-25T03:16:12.461Z,4.10
2022-08-25T03:18:41.982Z,4.70
2022-08-25T03:21:11.512Z,5.15
2022-08-25T03:23:39.722Z,5.10
2022-08-25T03:26:25.427Z,4.85
2022-08-25T03:28:52.577Z,4.90
2022-08-25T03:31:19.399Z,4.75
2022-08-25T03:33:46.228Z,4.25
2022-08-25T03:36:13.765Z,5.10
2022-08-25T03:38:41.775Z,4.60
2022-08-25T03:41:23.890Z,5.20
2022-08-25T03:43:55.347Z,4.40
2022-08-25T03:46:31.722Z,4.43
2022-08-25T03:49:01.194Z,5.40
2022-08-25T03:51:38.280Z,5.05
2022-08-25T03:54:05.543Z,5.15
2022-08-25T03:56:32.795Z,5.20
2022-08-25T03:58:59.632Z,5.30
2022-08-25T04:01:26.590Z,5.50
2022-08-25T04:03:53.493Z,5.22
2022-08-25T04:06:20.592Z,5.55
2022-08-25T04:08:47.936Z,5.15
2022-08-25T04:11:18.647Z,5.63
2022-08-25T04:13:46.731Z,5.20
2022-08-25T04:16:20.381Z,5.53
2022-08-25T04:18:48.407Z,5.45
2022-08-25T04:21:16.476Z,5.43
2022-08-25T04:23:46.001Z,5.97
2022-08-25T04:26:16.965Z,5.85
2022-08-25T04:28:43.855Z,5.72
2022-08-25T04:31:12.609Z,5.68
2022-08-25T04:33:39.688Z,5.70
2022-08-25T04:36:12.196Z,5.60
2022-08-25T04:38:41.001Z,5.90
2022-08-25T04:41:10.033Z,5.20
2022-08-25T04:43:38.087Z,5.50
2022-08-25T04:46:23.786Z,5.00
2022-08-25T04:48:52.695Z,5.38
2022-08-25T04:51:23.504Z,5.35
2022-08-25T04:53:51.446Z,5.50
2022-08-25T04:56:21.643Z,6.10
2022-08-25T04:58:48.442Z,5.78
2022-08-25T05:01:18.664Z,5.95
2022-08-25T05:03:47.602Z,5.85
2022-08-25T05:06:16.165Z,5.15
2022-08-25T05:08:45.933Z,5.55
2022-08-25T05:11:17.394Z,5.43
2022-08-25T05:13:51.654Z,5.63
2022-08-25T05:16:20.329Z,5.70
2022-08-25T05:18:47.655Z,6.10
2022-08-25T05:21:21.776Z,5.55
2022-08-25T05:23:48.991Z,5.82
2022-08-25T05:26:21.277Z,5.95
2022-08-25T05:28:52.932Z,6.40
2022-08-25T05:31:20.829Z,6.28
2022-08-25T05:33:48.197Z,5.65
2022-08-25T05:36:15.202Z,5.50
2022-08-25T05:38:42.576Z,5.68
2022-08-25T05:41:13.265Z,5.82
2022-08-25T05:43:41.986Z,6.13
2022-08-25T05:46:09.408Z,5.32
2022-08-25T05:48:36.708Z,5.75
2022-08-25T05:51:05.832Z,6.05
2022-08-25T05:53:35.070Z,5.80
2022-08-25T05:56:02.429Z,5.97
2022-08-25T05:58:30.198Z,5.90
2022-08-25T06:01:18.800Z,5.63
2022-08-25T06:03:47.631Z,6.22
2022-08-25T06:06:15.955Z,5.88
2022-08-25T06:08:48.879Z,5.95
2022-08-25T06:11:16.523Z,5.60
2022-08-25T06:13:43.351Z,5.85
2022-08-25T06:16:10.318Z,5.55
2022-08-25T06:18:37.189Z,5.50
2022-08-25T06:21:08.947Z,5.43
2022-08-25T06:23:36.981Z,5.03
2022-08-25T06:26:04.033Z,5.25
2022-08-25T06:28:30.817Z,5.60
2022-08-25T06:31:01.888Z,5.03
2022-08-25T06:33:29.305Z,4.47
2022-08-25T06:35:56.862Z,4.78
2022-08-25T06:38:24.414Z,5.40
2022-08-25T06:40:52.443Z,4.88
2022-08-25T06:43:21.370Z,4.88
2022-08-25T06:45:48.516Z,5.05
2022-08-25T06:48:16.046Z,4.57
2022-08-25T06:50:44.575Z,4.90
2022-08-25T06:53:12.052Z,4.45
2022-08-25T06:55:39.358Z,4.60
2022-08-25T06:58:07.307Z,4.68
2022-08-25T07:00:38.730Z,4.85
2022-08-25T07:03:05.843Z,5.25
2022-08-25T07:05:43.505Z,4.43
2022-08-25T07:08:11.967Z,5.07
2022-08-25T07:10:39.127Z,4.72
2022-08-25T07:13:05.921Z,4.75
2022-08-25T07:15:32.783Z,4.75
2022-08-25T07:17:59.559Z,4.88
2022-08-25T07:22:58.146Z,4.22
2022-08-25T07:25:25.034Z,4.60
2022-08-25T07:27:54.835Z,4.63
2022-08-25T07:30:25.257Z,4.85
2022-08-25T07:32:55.172Z,4.35
2022-08-25T07:35:26.283Z,4.30
2022-08-25T07:37:57.077Z,4.40
2022-08-25T07:40:32.686Z,4.28
2022-08-25T07:43:02.400Z,4.90
2022-08-25T07:45:32.437Z,4.60
2022-08-25T07:48:10.589Z,4.53
2022-08-25T07:50:42.380Z,4.65
2022-08-25T07:53:10.179Z,4.53
2022-08-25T07:55:38.296Z,4.72
2022-08-25T07:58:08.169Z,4.95
2022-08-25T08:00:37.595Z,4.80
2022-08-25T08:03:12.974Z,4.75
2022-08-25T08:05:46.967Z,5.05
2022-08-25T08:08:16.385Z,4.68
2022-08-25T08:11:03.311Z,4.75
2022-08-25T08:13:36.816Z,4.43
2022-08-25T08:16:10.286Z,4.78
2022-08-25T08:18:38.929Z,4.15
2022-08-25T08:21:11.314Z,5.20
2022-08-25T08:23:38.350Z,4.20
2022-08-25T08:26:05.399Z,4.90
2022-08-25T08:28:32.853Z,4.68
2022-08-25T08:30:59.813Z,4.85
2022-08-25T08:33:27.657Z,4.30
2022-08-25T08:36:07.313Z,4.75
2022-08-25T08:38:35.848Z,4.50
2022-08-25T08:41:30.543Z,4.57
2022-08-25T08:44:15.747Z,5.03
2022-08-25T08:47:12.727Z,4.63
2022-08-25T08:50:21.609Z,5.03
2022-08-25T08:52:57.725Z,4.75
2022-08-25T08:55:40.311Z,4.90
2022-08-25T08:58:20.588Z,4.90
2022-08-25T09:00:58.226Z,4.95
2022-08-25T09:03:36.909Z,5.15
2022-08-25T09:06:22.489Z,5.63
2022-08-25T09:08:49.833Z,5.15
2022-08-25T09:11:24.142Z,5.50
2022-08-25T09:14:18.134Z,5.20
2022-08-25T09:16:57.600Z,5.32
2022-08-25T09:19:31.382Z,5.53
2022-08-25T09:22:33.441Z,5.90
2022-08-25T09:25:29.407Z,5.50
2022-08-25T09:28:16.583Z,5.45
2022-08-25T09:30:54.390Z,5.43
2022-08-25T09:33:23.938Z,5.53
2022-08-25T09:35:53.827Z,5.50
2022-08-25T09:38:21.404Z,5.30
2022-08-25T09:40:51.842Z,5.10
2022-08-25T09:43:44.905Z,5.28
2022-08-25T09:46:15.144Z,5.78
2022-08-25T09:48:41.900Z,5.45
2022-08-25T09:51:24.399Z,4.85
2022-08-25T09:53:56.102Z,5.53
2022-08-25T09:56:26.590Z,5.53
2022-08-25T09:58:54.283Z,6.00
2022-08-25T10:01:23.533Z,5.47
2022-08-25T10:03:56.515Z,5.00
2022-08-25T10:06:23.812Z,5.25
2022-08-25T10:08:51.393Z,5.05
2022-08-25T10:11:34.840Z,4.97
2022-08-25T10:14:14.997Z,5.03
2022-08-25T10:16:41.845Z,5.22
2022-08-25T10:19:27.519Z,5.10
2022-08-25T10:22:24.287Z,4.35
2022-08-25T10:24:51.396Z,4.88
2022-08-25T10:27:39.414Z,4.50
2022-08-25T10:30:17.821Z,4.55
2022-08-25T10:33:03.438Z,4.20
2022-08-25T10:36:05.706Z,4.78
2022-08-25T10:39:01.609Z,4.25
2022-08-25T10:41:28.602Z,4.70
2022-08-25T10:44:36.872Z,5.22
2022-08-25T10:47:41.119Z,4.45
2022-08-25T10:50:33.584Z,4.10
2022-08-25T10:53:39.045Z,4.20
2022-08-25T10:56:12.196Z,4.25
2022-08-25T10:59:16.540Z,3.88
2022-08-25T11:02:01.757Z,3.67
2022-08-25T11:05:12.775Z,3.90
2022-08-25T11:07:52.081Z,4.07
2022-08-25T11:10:36.539Z,3.90
2022-08-25T11:13:11.323Z,4.00
2022-08-25T11:16:19.587Z,3.85
2022-08-25T11:19:05.579Z,4.10
2022-08-25T11:21:47.343Z,3.50
2022-08-25T11:24:18.263Z,3.40
2022-08-25T11:26:53.529Z,3.42
2022-08-25T11:29:22.674Z,3.55
2022-08-25T11:31:54.125Z,3.50
2022-08-25T11:34:22.493Z,3.55
2022-08-25T11:37:07.809Z,3.60
2022-08-25T11:39:47.156Z,3.75
2022-08-25T11:42:21.650Z,3.67
2022-08-25T11:45:07.765Z,3.97
2022-08-25T11:47:35.072Z,3.35
2022-08-25T11:50:06.272Z,3.47
2022-08-25T11:52:33.006Z,3.50
2022-08-25T11:55:43.619Z,3.53
2022-08-25T11:58:41.026Z,3.50
2022-08-25T12:01:31.269Z,3.17
2022-08-25T12:04:44.964Z,3.42
2022-08-25T12:07:19.764Z,3.70
2022-08-25T12:09:53.843Z,3.70
2022-08-25T12:12:37.168Z,3.55
2022-08-25T12:15:26.131Z,3.30
2022-08-25T12:18:12.640Z,3.65
2022-08-25T12:20:56.314Z,3.35
2022-08-25T12:23:44.900Z,3.60
2022-08-25T12:27:06.495Z,3.35
2022-08-25T12:29:42.240Z,3.78
2022-08-25T12:32:18.242Z,3.30
2022-08-25T12:34:54.261Z,3.53
2022-08-25T12:37:23.941Z,3.20
2022-08-25T12:39:50.841Z,3.47
2022-08-25T12:42:29.443Z,3.70
2022-08-25T12:45:21.030Z,3.63
2022-08-25T12:47:49.969Z,3.55
2022-08-25T12:50:35.676Z,3.53
2022-08-25T12:53:15.506Z,3.53
2022-08-25T12:55:48.627Z,3.42
2022-08-25T12:58:16.257Z,3.30
2022-08-25T13:01:17.420Z,3.70
2022-08-25T13:04:35.232Z,3.78
2022-08-25T13:07:17.141Z,3.38
2022-08-25T13:10:01.051Z,3.75
2022-08-25T13:12:49.728Z,3.75
2022-08-25T13:15:34.205Z,4.18
2022-08-25T13:18:21.783Z,3.78
2022-08-25T13:21:01.436Z,3.60
2022-08-25T13:23:30.215Z,3.55
2022-08-25T13:25:58.389Z,3.50
2022-08-25T13:28:40.772Z,3.78
2022-08-25T13:31:19.039Z,3.20
2022-08-25T13:33:55.911Z,3.65
2022-08-25T13:36:47.046Z,3.80
2022-08-25T13:39:45.366Z,3.08
2022-08-25T13:42:16.674Z,3.47
2022-08-25T13:44:51.952Z,3.25
2022-08-25T13:47:45.379Z,3.70
2022-08-25T13:50:22.615Z,4.00
2022-08-25T13:52:56.906Z,3.33
2022-08-25T13:55:29.883Z,3.72
2022-08-25T13:58:12.788Z,3.30
2022-08-25T14:00:48.668Z,3.47
2022-08-25T14:03:34.688Z,3.60
2022-08-25T14:06:25.820Z,3.88
2022-08-25T14:08:55.562Z,3.63
2022-08-25T14:11:33.307Z,3.45
2022-08-25T14:14:03.118Z,3.83
2022-08-25T14:16:36.258Z,4.03
2022-08-25T14:19:04.510Z,3.65
2022-08-25T14:21:34.605Z,3.60
2022-08-25T14:24:01.595Z,3.45
2022-08-25T14:26:28.982Z,3.30
2022-08-25T14:28:57.550Z,3.90
2022-08-25T14:31:28.445Z,3.63
2022-08-25T14:34:05.687Z,4.03
2022-08-25T14:36:34.374Z,3.70
2022-08-25T14:39:05.907Z,3.53
2022-08-25T14:41:41.104Z,3.28
2022-08-25T14:44:10.070Z,3.63
2022-08-25T14:46:49.248Z,3.78
2022-08-25T14:49:24.977Z,3.92
2022-08-25T14:51:52.172Z,3.30
2022-08-25T14:54:23.501Z,3.60
2022-08-25T14:56:50.913Z,3.35
2022-08-25T14:59:18.509Z,3.65
2022-08-25T15:01:46.003Z,3.40
2022-08-25T15:04:28.399Z,3.67
2022-08-25T15:06:58.263Z,3.58
2022-08-25T15:09:25.136Z,3.20
2022-08-25T15:12:00.110Z,3.80
2022-08-25T15:14:28.821Z,3.40
2022-08-25T15:17:01.766Z,3.63
2022-08-25T15:19:29.214Z,3.42
2022-08-25T15:21:58.030Z,3.10
2022-08-25T15:24:27.393Z,3.80
2022-08-25T15:26:58.479Z,3.22
2022-08-25T15:29:29.221Z,3.40
2022-08-25T15:31:56.733Z,3.63
2022-08-25T15:34:23.528Z,3.72
2022-08-25T15:36:50.936Z,3.78
2022-08-25T15:39:19.226Z,3.60
2022-08-25T15:41:52.545Z,3.30
2022-08-25T15:44:20.210Z,3.40
2022-08-25T15:46:50.034Z,3.55
2022-08-25T15:49:23.188Z,3.80
2022-08-25T15:51:52.464Z,3.42
2022-08-25T15:54:20.737Z,3.67
2022-08-25T15:56:48.000Z,3.63
2022-08-25T15:59:15.432Z,3.30
2022-08-25T16:01:44.407Z,3.88
2022-08-25T16:04:14.465Z,3.88
2022-08-25T16:06:41.780Z,3.40
2022-08-25T16:09:08.679Z,3.50
2022-08-25T16:11:35.640Z,3.58
2022-08-25T16:14:06.420Z,3.25
2022-08-25T16:16:33.631Z,3.40
2022-08-25T16:19:02.401Z,3.50
2022-08-25T16:21:33.080Z,3.40
2022-08-25T16:24:05.434Z,2.97
2022-08-25T16:26:36.452Z,2.97
2022-08-25T16:29:06.453Z,3.28
2022-08-25T16:31:33.696Z,3.20
2022-08-25T16:34:01.513Z,3.47
2022-08-25T16:36:29.015Z,3.40
2022-08-25T16:38:57.713Z,3.90
2022-08-25T16:41:29.245Z,3.60
2022-08-25T16:43:58.693Z,3.95
2022-08-25T16:46:25.766Z,3.80
2022-08-25T16:48:53.360Z,4.00
2022-08-25T16:51:22.710Z,3.70
2022-08-25T16:54:15.942Z,3.67
2022-08-25T16:56:53.750Z,3.90
2022-08-25T16:59:23.523Z,3.88
2022-08-25T17:01:51.423Z,3.88
2022-08-25T17:04:18.320Z,3.83
2022-08-25T17:06:51.778Z,4.03
2022-08-25T17:09:23.975Z,3.67
2022-08-25T17:11:52.649Z,3.97
2022-08-25T17:14:21.871Z,4.88
2022-08-25T17:16:51.069Z,4.32
2022-08-25T17:19:18.580Z,4.70
2022-08-25T17:21:49.962Z,4.18
2022-08-25T17:24:17.345Z,3.90
2022-08-25T17:26:46.343Z,4.18
2022-08-25T17:29:13.404Z,4.20
2022-08-25T17:31:40.641Z,4.78
2022-08-25T17:34:10.390Z,4.80
2022-08-25T17:36:38.513Z,4.28
2022-08-25T17:39:07.834Z,4.65
2022-08-25T17:41:34.939Z,5.10
2022-08-25T17:44:05.405Z,4.60
2022-08-25T17:46:32.937Z,4.85
2022-08-25T17:48:59.906Z,4.70
2022-08-25T17:51:26.755Z,5.03
2022-08-25T17:53:56.452Z,5.30
2022-08-25T17:56:24.942Z,4.72
2022-08-25T17:58:55.471Z,4.93
2022-08-25T18:01:28.372Z,4.90
2022-08-25T18:03:57.493Z,5.00
2022-08-25T18:06:24.988Z,5.20
2022-08-25T18:08:56.363Z,5.75
2022-08-25T18:11:26.261Z,5.40
2022-08-25T18:13:54.289Z,5.30
2022-08-25T18:16:22.003Z,6.15
2022-08-25T18:18:49.240Z,5.80
2022-08-25T18:21:17.886Z,5.65
2022-08-25T18:23:45.703Z,5.60
2022-08-25T18:26:14.536Z,5.50
2022-08-25T18:28:43.870Z,5.57
2022-08-25T18:31:13.295Z,5.75
2022-08-25T18:33:44.788Z,5.72
2022-08-25T18:36:12.591Z,5.65
2022-08-25T18:38:59.410Z,5.90
2022-08-25T18:41:28.761Z,6.28
2022-08-25T18:43:55.584Z,6.78
2022-08-25T18:46:22.942Z,6.57
2022-08-25T18:48:52.743Z,20.98
2022-08-25T18:51:23.012Z,10.25
2022-08-25T18:53:51.260Z,14.80
2022-08-25T18:56:22.666Z,49.30
2022-08-25T18:58:49.497Z,8.27
2022-08-25T19:01:19.019Z,6.38
2022-08-25T19:03:46.212Z,6.15
2022-08-25T19:06:13.523Z,6.90
2022-08-25T19:08:42.196Z,15.73
2022-08-25T19:11:10.071Z,6.53
2022-08-25T19:13:38.146Z,6.60
2022-08-25T19:16:17.810Z,6.32
2022-08-25T19:18:48.667Z,6.80
2022-08-25T19:21:15.781Z,6.95
2022-08-25T19:23:42.587Z,6.10
2022-08-25T19:26:16.891Z,7.25
2022-08-25T19:28:48.923Z,7.30
2022-08-25T19:31:24.395Z,6.35
2022-08-25T19:33:54.404Z,7.18
2022-08-25T19:36:27.998Z,6.55
2022-08-25T19:38:58.511Z,6.93
2022-08-25T19:41:27.706Z,6.40
2022-08-25T19:43:57.239Z,7.32
2022-08-25T19:46:33.082Z,7.53
2022-08-25T19:49:07.972Z,7.03
2022-08-25T19:51:41.165Z,7.18
2022-08-25T19:54:15.087Z,7.93
2022-08-25T19:56:43.572Z,7.43
2022-08-25T19:59:21.097Z,7.45
2022-08-25T20:01:50.165Z,7.82
2022-08-25T20:04:17.025Z,8.02
2022-08-25T20:06:44.074Z,7.65
2022-08-25T20:09:35.662Z,8.18
2022-08-25T20:12:03.013Z,8.60
2022-08-25T20:14:29.974Z,7.88
2022-08-25T20:16:56.977Z,7.88
2022-08-25T20:19:23.970Z,8.00
2022-08-25T20:21:50.726Z,8.00
2022-08-25T20:24:36.175Z,7.82
2022-08-25T20:27:04.198Z,8.00
2022-08-25T20:29:31.794Z,8.60
2022-08-25T20:31:59.596Z,7.97
2022-08-25T20:34:29.182Z,8.75
2022-08-25T20:36:59.337Z,8.88
2022-08-25T20:39:26.149Z,8.73
2022-08-25T20:41:53.368Z,8.68
2022-08-25T20:44:20.170Z,9.00
2022-08-25T20:46:51.634Z,9.43
2022-08-25T20:49:21.593Z,9.68
2022-08-25T20:51:48.398Z,9.45
2022-08-25T20:54:18.837Z,9.93
2022-08-25T20:56:45.761Z,9.20
2022-08-25T20:59:13.814Z,9.55
2022-08-25T21:01:42.383Z,9.38
2022-08-25T21:04:14.812Z,9.75
2022-08-25T21:06:42.590Z,9.85
2022-08-25T21:09:15.788Z,8.80
2022-08-25T21:11:45.077Z,9.90
2022-08-25T21:14:13.406Z,10.32
2022-08-25T21:16:41.712Z,9.15
2022-08-25T21:19:10.943Z,9.48
2022-08-25T21:21:38.840Z,8.45
2022-08-25T21:24:09.842Z,8.65
2022-08-25T21:26:48.627Z,8.90
2022-08-25T21:29:17.847Z,8.50
2022-08-25T21:31:45.957Z,8.25
2022-08-25T21:34:17.184Z,8.75
2022-08-25T21:36:46.641Z,8.18
2022-08-25T21:39:14.630Z,8.30
2022-08-25T21:41:45.599Z,8.00
2022-08-25T21:44:13.833Z,8.18
2022-08-25T21:46:41.234Z,7.90
2022-08-25T21:49:08.737Z,8.23
2022-08-25T21:51:40.808Z,8.60
2022-08-25T21:54:11.165Z,8.55
2022-08-25T21:56:42.315Z,8.32
2022-08-25T21:59:13.519Z,8.52
2022-08-25T22:01:41.536Z,8.07
2022-08-25T22:04:10.375Z,7.53
2022-08-25T22:06:39.158Z,8.50
2022-08-25T22:09:08.390Z,8.45
2022-08-25T22:11:36.262Z,8.65
2022-08-25T22:14:03.702Z,8.93
2022-08-25T22:16:33.504Z,8.55
2022-08-25T22:19:00.972Z,8.60
2022-08-25T22:21:29.533Z,9.05
2022-08-25T22:23:56.367Z,9.05
2022-08-25T22:26:24.168Z,9.32
2022-08-25T22:28:54.537Z,8.88
2022-08-25T22:31:21.499Z,8.80
2022-08-25T22:33:49.541Z,8.93
2022-08-25T22:36:22.329Z,8.98
2022-08-25T22:38:49.205Z,9.63
2022-08-25T22:41:19.080Z,8.18
2022-08-25T22:43:52.918Z,9.63
2022-08-25T22:46:21.502Z,10.82
2022-08-25T22:48:50.326Z,11.05
2022-08-25T22:51:21.089Z,10.45
2022-08-25T22:53:49.350Z,10.48
2022-08-25T22:56:18.961Z,10.68
2022-08-25T22:58:52.092Z,11.00
2022-08-25T23:01:20.589Z,9.48
2022-08-25T23:03:47.884Z,9.85
2022-08-25T23:06:24.641Z,9.85
2022-08-25T23:08:53.820Z,10.02
2022-08-25T23:11:22.468Z,10.77
2022-08-25T23:13:49.603Z,9.52
2022-08-25T23:16:17.904Z,9.60
2022-08-25T23:18:46.784Z,10.15
2022-08-25T23:21:35.025Z,9.63
2022-08-25T23:24:05.701Z,10.27
2022-08-25T23:26:33.881Z,10.35
2022-08-25T23:29:00.897Z,10.45
2022-08-25T23:31:30.354Z,11.15
2022-08-25T23:33:58.088Z,11.73
2022-08-25T23:36:25.711Z,11.98
2022-08-25T23:38:52.682Z,12.70
2022-08-25T23:41:23.299Z,12.20
2022-08-25T23:43:50.942Z,13.02
2022-08-25T23:46:21.396Z,12.90
2022-08-25T23:48:49.337Z,12.90
2022-08-25T23:51:30.173Z,12.25
2022-08-25T23:53:57.852Z,11.38
2022-08-25T23:56:26.216Z,11.77
2022-08-25T23:58:55.609Z,13.25
